Time;durP1;ratioP1;P1;durP2;ratioP2;P2;SDS_P1;SDS_P2;PMS_P1;PMS_P2;Temp;Humidity;BMP_temperature;BMP_pressure;BME280_temperature;BME280_humidity;BME280_pressure;Samples;Min_cycle;Max_cycle;Signal;HPM_P1;HPM_P2
2023/05/29 00:01:34;;;;;;;26.05;3.75;;;9.40;99.90;;;;;;4956840;28;92149;-33
2023/05/29 00:03:59;;;;;;;13.32;2.80;;;9.40;99.90;;;;;;4956139;28;92663;-33
2023/05/29 00:06:25;;;;;;;8.05;3.47;;;9.40;99.90;;;;;;4956530;28;95162;-36
2023/05/29 00:08:50;;;;;;;8.73;4.13;;;9.30;99.90;;;;;;4956831;28;93796;-33
2023/05/29 00:11:16;;;;;;;6.20;2.92;;;9.30;99.90;;;;;;4960512;28;93212;-35
2023/05/29 00:13:42;;;;;;;7.97;2.65;;;9.20;99.90;;;;;;4960360;28;92397;-31
2023/05/29 00:16:09;;;;;;;9.90;3.83;;;9.10;99.90;;;;;;4941989;28;95190;-32
2023/05/29 00:18:35;;;;;;;15.00;4.35;;;9.20;99.90;;;;;;4959442;28;94512;-33
2023/05/29 00:21:01;;;;;;;13.95;6.15;;;9.10;99.90;;;;;;4958261;28;94770;-33
2023/05/29 00:23:27;;;;;;;8.23;4.50;;;9.00;99.90;;;;;;4959622;28;93639;-33
2023/05/29 00:25:53;;;;;;;8.57;3.85;;;9.00;99.90;;;;;;4959657;28;96006;-33
2023/05/29 00:28:18;;;;;;;15.65;3.60;;;9.00;99.90;;;;;;4959250;28;94463;-32
2023/05/29 00:30:44;;;;;;;15.25;4.53;;;8.90;99.90;;;;;;4960166;28;93332;-34
2023/05/29 00:33:10;;;;;;;8.45;4.75;;;9.00;99.90;;;;;;4959139;28;94988;-33
2023/05/29 00:35:35;;;;;;;9.38;4.18;;;8.90;99.90;;;;;;4959408;28;95446;-36
2023/05/29 00:38:01;;;;;;;20.33;5.65;;;8.90;99.90;;;;;;4959873;28;95638;-34
2023/05/29 00:40:26;;;;;;;14.20;4.68;;;8.90;99.90;;;;;;4959285;28;94559;-38
2023/05/29 00:42:52;;;;;;;11.50;4.50;;;8.80;99.90;;;;;;4959804;28;92599;-33
2023/05/29 00:45:18;;;;;;;10.75;4.97;;;8.80;99.90;;;;;;4958123;28;95756;-33
2023/05/29 00:47:44;;;;;;;12.05;6.03;;;8.80;99.90;;;;;;4959901;28;95320;-31
2023/05/29 00:50:13;;;;;;;9.48;3.75;;;8.70;99.90;;;;;;4958818;28;93091;-32
2023/05/29 00:52:41;;;;;;;9.40;3.45;;;8.80;99.90;;;;;;4959264;28;94035;-33
2023/05/29 00:55:08;;;;;;;20.38;4.47;;;8.70;99.90;;;;;;4958537;28;95053;-33
2023/05/29 00:57:35;;;;;;;6.35;2.05;;;8.70;99.90;;;;;;4941876;28;94451;-32
2023/05/29 01:00:05;;;;;;;7.90;4.00;;;8.70;99.90;;;;;;4959257;28;92973;-33
2023/05/29 01:02:31;;;;;;;17.90;4.65;;;8.70;99.90;;;;;;4959947;28;93491;-32
2023/05/29 01:04:57;;;;;;;9.02;3.30;;;8.60;99.90;;;;;;4959089;28;93587;-33
2023/05/29 01:07:23;;;;;;;9.55;4.13;;;8.60;99.90;;;;;;4959072;28;95123;-31
2023/05/29 01:09:48;;;;;;;6.22;3.63;;;8.60;99.90;;;;;;4958741;28;93828;-35
2023/05/29 01:12:14;;;;;;;7.90;3.03;;;8.60;99.90;;;;;;4958775;28;93767;-37
2023/05/29 01:15:04;;;;;;;9.88;3.83;;;8.60;99.90;;;;;;4941799;28;93452;-34
2023/05/29 01:17:54;;;;;;;13.90;3.97;;;8.50;99.90;;;;;;4959183;28;94696;-33
2023/05/29 01:20:41;;;;;;;6.75;2.60;;;8.60;99.90;;;;;;4958076;28;94127;-35
2023/05/29 01:23:19;;;;;;;21.02;4.80;;;8.50;99.90;;;;;;4958988;28;94835;-31
2023/05/29 01:26:25;;;;;;;14.02;5.15;;;8.50;99.90;;;;;;4958976;28;95220;-33
2023/05/29 01:28:53;;;;;;;9.98;3.03;;;8.50;99.90;;;;;;4959607;28;94227;-33
2023/05/29 01:31:25;;;;;;;10.90;4.55;;;8.50;99.90;;;;;;4958652;28;94547;-32
2023/05/29 01:33:55;;;;;;;13.48;4.25;;;8.60;99.90;;;;;;4941312;28;92480;-35
2023/05/29 01:36:21;;;;;;;9.75;4.10;;;8.40;99.90;;;;;;4958275;28;94476;-32
2023/05/29 01:38:48;;;;;;;11.90;4.07;;;8.40;99.90;;;;;;4958551;28;96133;-32
2023/05/29 01:41:15;;;;;;;8.63;4.05;;;8.30;99.90;;;;;;4958604;28;94356;-32
2023/05/29 01:43:43;;;;;;;13.48;4.45;;;8.30;99.90;;;;;;4941001;28;93318;-32
2023/05/29 01:46:09;;;;;;;11.57;3.53;;;8.30;99.90;;;;;;4958223;28;93595;-35
2023/05/29 01:48:35;;;;;;;13.55;2.95;;;8.30;99.90;;;;;;4957812;28;94462;-33
2023/05/29 01:51:01;;;;;;;17.40;3.10;;;;;;;;;;4958698;28;94476;-36
2023/05/29 01:53:27;;;;;;;8.27;3.40;;;8.20;99.90;;;;;;4941120;28;92386;-32
2023/05/29 01:55:53;;;;;;;10.38;2.97;;;8.20;99.90;;;;;;4957452;28;94577;-31
2023/05/29 01:58:21;;;;;;;5.63;2.90;;;8.10;99.90;;;;;;4958615;28;94449;-32
2023/05/29 02:00:47;;;;;;;17.60;5.30;;;8.10;99.90;;;;;;4958081;28;94422;-32
2023/05/29 02:03:13;;;;;;;12.40;3.13;;;8.10;99.90;;;;;;4957870;28;94590;-34
2023/05/29 02:05:38;;;;;;;12.68;3.10;;;8.10;99.90;;;;;;4958374;28;95424;-33
2023/05/29 02:08:05;;;;;;;6.10;3.90;;;8.10;99.90;;;;;;4957713;28;94673;-31
2023/05/29 02:10:31;;;;;;;9.40;3.65;;;8.10;99.90;;;;;;4958493;28;92802;-32
2023/05/29 02:12:57;;;;;;;10.18;3.47;;;8.10;99.90;;;;;;4958436;28;93483;-33
2023/05/29 02:15:23;;;;;;;25.40;4.13;;;8.20;99.90;;;;;;4957476;28;95071;-31
2023/05/29 02:17:49;;;;;;;14.38;3.70;;;8.00;99.90;;;;;;4957785;28;94551;-34
2023/05/29 02:20:15;;;;;;;11.00;3.45;;;8.00;99.90;;;;;;4957195;28;93164;-32
2023/05/29 02:22:41;;;;;;;8.68;2.60;;;8.00;99.90;;;;;;4939843;28;92843;-37
2023/05/29 02:25:07;;;;;;;6.32;2.95;;;8.10;99.90;;;;;;4957316;28;95905;-34
2023/05/29 02:27:33;;;;;;;13.80;3.28;;;8.00;99.90;;;;;;4957696;28;95790;-35
2023/05/29 02:29:58;;;;;;;13.57;3.70;;;8.00;99.90;;;;;;4957909;28;93060;-35
2023/05/29 02:32:25;;;;;;;7.32;2.35;;;8.00;99.90;;;;;;4956452;28;94493;-34
2023/05/29 02:34:52;;;;;;;8.93;3.58;;;8.00;99.90;;;;;;4957295;28;94712;-34
2023/05/29 02:37:17;;;;;;;9.82;3.78;;;7.90;99.90;;;;;;4957985;28;95121;-32
2023/05/29 02:39:43;;;;;;;6.72;2.38;;;8.00;99.90;;;;;;4957697;28;92838;-32
2023/05/29 02:42:09;;;;;;;11.40;2.67;;;8.00;99.90;;;;;;4957516;28;94377;-33
2023/05/29 02:44:35;;;;;;;8.90;3.42;;;8.00;99.90;;;;;;4957199;28;94569;-31
2023/05/29 02:47:00;;;;;;;12.07;4.13;;;7.90;99.90;;;;;;4957002;28;94560;-31
2023/05/29 02:49:26;;;;;;;8.00;3.72;;;7.90;99.90;;;;;;4957529;28;93958;-32
2023/05/29 02:51:56;;;;;;;8.63;2.83;;;7.90;99.90;;;;;;4956962;28;94135;-32
2023/05/29 02:54:24;;;;;;;10.65;4.63;;;7.80;99.90;;;;;;4956705;28;96328;-33
2023/05/29 02:56:50;;;;;;;12.25;5.10;;;7.80;99.90;;;;;;4956455;28;94760;-33
2023/05/29 02:59:15;;;;;;;8.98;3.55;;;7.80;99.90;;;;;;4957384;28;93502;-35
2023/05/29 03:01:42;;;;;;;4.55;2.47;;;7.80;99.90;;;;;;4957348;28;93030;-36
2023/05/29 03:04:09;;;;;;;19.45;4.22;;;7.80;99.90;;;;;;4956256;28;94782;-38
2023/05/29 03:06:36;;;;;;;9.45;4.55;;;7.70;99.90;;;;;;4957386;28;95173;-34
2023/05/29 03:09:04;;;;;;;10.20;4.88;;;7.80;99.90;;;;;;4957251;28;94207;-35
2023/05/29 03:11:35;;;;;;;14.23;4.65;;;7.80;99.90;;;;;;4956764;28;92079;-35
2023/05/29 03:14:01;;;;;;;10.20;3.97;;;7.70;99.90;;;;;;4956638;28;95499;-34
2023/05/29 03:16:29;;;;;;;7.57;3.00;;;7.80;99.90;;;;;;4956290;28;95401;-32
2023/05/29 03:18:55;;;;;;;24.00;3.92;;;7.80;99.90;;;;;;4957562;28;92708;-31
2023/05/29 03:21:21;;;;;;;9.45;4.10;;;7.80;99.90;;;;;;4956450;28;93415;-34
2023/05/29 03:23:47;;;;;;;6.03;2.55;;;7.70;99.90;;;;;;4957107;28;94512;-33
2023/05/29 03:26:13;;;;;;;5.95;3.92;;;7.60;99.90;;;;;;4956836;28;94556;-34
2023/05/29 03:28:39;;;;;;;7.50;3.33;;;7.70;99.90;;;;;;4956623;28;93894;-33
2023/05/29 03:31:05;;;;;;;14.50;4.15;;;7.70;99.90;;;;;;4956972;28;92339;-35
2023/05/29 03:33:30;;;;;;;14.65;5.00;;;7.70;99.90;;;;;;4956712;28;95332;-32
2023/05/29 03:35:56;;;;;;;13.70;4.15;;;7.70;99.90;;;;;;4956993;28;94274;-31
2023/05/29 03:38:22;;;;;;;9.40;4.38;;;7.70;99.90;;;;;;4957104;28;93070;-34
2023/05/29 03:40:48;;;;;;;6.10;3.05;;;7.70;99.90;;;;;;4956214;28;92477;-35
2023/05/29 03:43:14;;;;;;;12.57;3.75;;;7.70;99.90;;;;;;4955954;28;93809;-33
2023/05/29 03:45:40;;;;;;;8.48;3.40;;;7.60;99.90;;;;;;4956723;28;96131;-32
2023/05/29 03:48:05;;;;;;;9.85;3.67;;;7.70;99.90;;;;;;4956681;28;92230;-32
2023/05/29 03:50:31;;;;;;;10.43;2.60;;;7.70;99.90;;;;;;4957039;28;92997;-34
2023/05/29 03:52:56;;;;;;;9.25;2.85;;;7.70;99.90;;;;;;4956150;28;95949;-35
2023/05/29 03:55:22;;;;;;;9.75;5.47;;;7.70;99.90;;;;;;4956809;28;95258;-32
2023/05/29 03:57:48;;;;;;;9.48;3.47;;;7.70;99.90;;;;;;4957053;28;93214;-32
2023/05/29 04:00:14;;;;;;;23.58;7.05;;;7.80;99.90;;;;;;4956128;28;93871;-33
2023/05/29 04:02:41;;;;;;;7.57;3.67;;;7.80;99.90;;;;;;4956108;28;95730;-34
2023/05/29 04:05:08;;;;;;;8.93;2.45;;;7.70;99.90;;;;;;4955818;28;95674;-34
2023/05/29 04:07:36;;;;;;;8.75;3.55;;;7.70;99.90;;;;;;4956514;28;94318;-31
2023/05/29 04:10:02;;;;;;;6.63;3.67;;;7.70;99.90;;;;;;4956000;28;93017;-34
2023/05/29 04:12:28;;;;;;;9.98;3.42;;;7.70;99.90;;;;;;4938835;28;94912;-30
2023/05/29 04:14:54;;;;;;;8.23;4.15;;;7.70;99.90;;;;;;4956051;28;95272;-32
2023/05/29 04:17:20;;;;;;;15.43;4.85;;;7.80;99.90;;;;;;4956922;28;94425;-44
2023/05/29 04:19:45;;;;;;;10.88;4.00;;;7.90;99.90;;;;;;4955710;28;92590;-31
2023/05/29 04:22:11;;;;;;;6.53;3.25;;;7.90;99.90;;;;;;5006440;22;95812;-37
2023/05/29 04:24:37;;;;;;;12.90;4.07;;;7.90;99.90;;;;;;4975781;28;94602;-35
2023/05/29 04:27:02;;;;;;;12.95;3.60;;;8.00;99.90;;;;;;4975998;28;94348;-34
2023/05/29 04:29:34;;;;;;;10.27;3.92;;;8.00;99.90;;;;;;4975791;28;92164;-36
2023/05/29 04:32:03;;;;;;;9.13;3.40;;;8.10;99.90;;;;;;4976141;28;94518;-33
2023/05/29 04:34:30;;;;;;;13.40;2.97;;;8.20;99.90;;;;;;4975690;28;94654;-31
2023/05/29 04:36:57;;;;;;;7.50;3.83;;;8.30;99.90;;;;;;4976005;28;93842;-33
2023/05/29 04:39:22;;;;;;;12.18;4.22;;;8.30;99.90;;;;;;4975759;28;92896;-33
2023/05/29 04:41:48;;;;;;;12.00;3.95;;;8.40;99.90;;;;;;4976778;28;93355;-34
2023/05/29 04:44:14;;;;;;;11.77;4.85;;;8.50;99.90;;;;;;4975387;28;95360;-36
2023/05/29 04:46:43;;;;;;;7.75;3.58;;;8.50;99.90;;;;;;4975860;28;92139;-38
2023/05/29 04:49:09;;;;;;;17.23;5.43;;;8.60;99.90;;;;;;4975150;28;94237;-37
2023/05/29 04:51:36;;;;;;;11.52;4.47;;;8.70;99.90;;;;;;4975658;28;95838;-32
2023/05/29 04:54:02;;;;;;;13.80;3.65;;;8.80;99.90;;;;;;4975931;28;95598;-35
2023/05/29 04:56:28;;;;;;;8.88;4.32;;;8.90;99.90;;;;;;4979663;28;93488;-32
2023/05/29 04:58:54;;;;;;;10.73;4.53;;;9.00;99.90;;;;;;4978713;28;93942;-33
2023/05/29 05:01:19;;;;;;;10.07;4.55;;;9.20;99.90;;;;;;4977914;28;94636;-38
2023/05/29 05:03:45;;;;;;;9.13;2.67;;;9.40;99.90;;;;;;4979545;28;94650;-37
2023/05/29 05:06:12;;;;;;;8.18;3.88;;;9.50;99.90;;;;;;4978607;28;94703;-32
2023/05/29 05:08:38;;;;;;;11.10;4.85;;;9.70;99.90;;;;;;4978746;28;92142;-33
2023/05/29 05:11:06;;;;;;;12.38;5.40;;;9.80;99.90;;;;;;4979198;28;94998;-32
2023/05/29 05:13:31;;;;;;;8.50;3.88;;;9.90;99.90;;;;;;4977978;28;95066;-32
2023/05/29 05:15:57;;;;;;;7.13;3.20;;;10.10;99.90;;;;;;4978280;28;95646;-35
2023/05/29 05:18:23;;;;;;;15.25;3.13;;;10.40;99.90;;;;;;4979200;28;93293;-33
2023/05/29 05:20:48;;;;;;;6.45;3.60;;;10.50;99.90;;;;;;4977603;28;92538;-34
2023/05/29 05:23:14;;;;;;;14.20;3.85;;;10.70;99.90;;;;;;4978632;28;94588;-32
2023/05/29 05:25:39;;;;;;;9.15;3.25;;;10.80;99.90;;;;;;4978115;28;93307;-33
2023/05/29 05:28:05;;;;;;;12.60;3.70;;;10.90;99.90;;;;;;4978974;28;93980;-34
2023/05/29 05:30:31;;;;;;;9.30;3.15;;;11.00;99.90;;;;;;4977985;28;92861;-34
2023/05/29 05:32:57;;;;;;;5.85;2.70;;;11.00;99.90;;;;;;4978612;28;94492;-37
2023/05/29 05:35:26;;;;;;;12.57;4.80;;;11.20;99.90;;;;;;4978764;28;94300;-30
2023/05/29 05:37:51;;;;;;;15.07;5.05;;;11.30;99.90;;;;;;4978356;28;94094;-31
2023/05/29 05:40:18;;;;;;;7.85;3.35;;;11.40;99.90;;;;;;4977072;28;95737;-34
2023/05/29 05:42:43;;;;;;;7.47;3.20;;;11.40;99.90;;;;;;4978362;28;96084;-30
2023/05/29 05:45:10;;;;;;;14.45;4.80;;;11.50;99.90;;;;;;4977642;28;93229;-32
2023/05/29 05:47:35;;;;;;;9.15;3.67;;;11.60;99.90;;;;;;4978237;28;93542;-34
2023/05/29 05:50:01;;;;;;;6.70;3.00;;;11.80;99.90;;;;;;4977559;28;95047;-34
2023/05/29 05:52:30;;;;;;;11.18;2.35;;;11.90;99.90;;;;;;4959848;28;94693;-31
2023/05/29 05:54:56;;;;;;;27.13;4.88;;;12.00;99.90;;;;;;4977970;28;92244;-34
2023/05/29 05:57:22;;;;;;;15.82;2.72;;;12.10;99.90;;;;;;4978368;28;92889;-30
2023/05/29 05:59:47;;;;;;;11.85;3.00;;;12.10;99.90;;;;;;4976680;28;94670;-31
2023/05/29 06:02:13;;;;;;;10.93;3.47;;;12.20;99.90;;;;;;4976019;28;94890;-35
2023/05/29 06:04:38;;;;;;;13.60;4.07;;;12.40;99.90;;;;;;4981493;28;93183;-35
2023/05/29 06:07:04;;;;;;;8.98;3.97;;;12.30;99.90;;;;;;4994784;28;93966;-36
2023/05/29 06:09:29;;;;;;;7.50;3.00;;;12.20;99.90;;;;;;4976435;28;95693;-32
2023/05/29 06:11:55;;;;;;;6.90;3.88;;;12.40;99.90;;;;;;4975181;28;94417;-34
2023/05/29 06:14:24;;;;;;;10.75;4.72;;;12.40;99.90;;;;;;4976925;28;94117;-35
2023/05/29 06:16:50;;;;;;;6.60;3.25;;;12.60;99.90;;;;;;4942277;28;93175;-32
2023/05/29 06:19:16;;;;;;;8.65;3.22;;;12.70;99.90;;;;;;4974982;28;94691;-32
2023/05/29 06:21:41;;;;;;;3.67;3.05;;;12.90;99.90;;;;;;4975699;28;94480;-32
2023/05/29 06:24:07;;;;;;;7.00;3.15;;;12.90;99.90;;;;;;4980449;28;94194;-33
2023/05/29 06:26:33;;;;;;;7.00;2.53;;;13.00;99.90;;;;;;4996060;28;93743;-34
2023/05/29 06:28:59;;;;;;;8.45;3.80;;;13.20;99.90;;;;;;4995665;28;95537;-31
2023/05/29 06:31:25;;;;;;;15.38;3.33;;;13.10;99.90;;;;;;4994985;28;94025;-33
2023/05/29 06:33:51;;;;;;;6.97;3.08;;;13.10;99.90;;;;;;4992709;28;93577;-33
2023/05/29 06:36:17;;;;;;;17.58;4.70;;;13.20;99.90;;;;;;4961561;28;93777;-36
2023/05/29 06:38:49;;;;;;;8.82;4.18;;;13.40;99.90;;;;;;4974397;28;94587;-35
2023/05/29 06:41:16;;;;;;;6.38;3.40;;;13.30;99.90;;;;;;4972694;28;94863;-33
2023/05/29 06:43:41;;;;;;;10.88;3.67;;;13.20;99.90;;;;;;4975065;28;94297;-35
2023/05/29 06:46:07;;;;;;;15.57;4.55;;;13.10;99.90;;;;;;4975398;28;91807;-34
2023/05/29 06:48:34;;;;;;;8.77;3.60;;;13.20;99.90;;;;;;4975194;28;94284;-34
2023/05/29 06:51:00;;;;;;;11.23;4.70;;;13.20;99.90;;;;;;4974979;28;94466;-33
2023/05/29 06:53:26;;;;;;;8.35;4.47;;;13.40;99.90;;;;;;4975419;28;93644;-32
2023/05/29 06:55:53;;;;;;;11.07;3.55;;;13.50;99.90;;;;;;4975155;28;94056;-31
2023/05/29 06:58:18;;;;;;;13.10;5.43;;;13.60;99.90;;;;;;4974921;28;94785;-31
2023/05/29 07:00:44;;;;;;;11.40;3.92;;;13.60;99.90;;;;;;4974206;28;94545;-32
2023/05/29 07:03:10;;;;;;;9.82;3.55;;;13.40;99.90;;;;;;4975136;28;94535;-36
2023/05/29 07:05:36;;;;;;;15.80;5.80;;;13.60;99.90;;;;;;4975230;28;93080;-33
2023/05/29 07:08:01;;;;;;;5.50;3.08;;;13.60;99.90;;;;;;4974605;28;95546;-34
2023/05/29 07:10:27;;;;;;;7.25;4.25;;;13.70;99.90;;;;;;4975199;28;94479;-35
2023/05/29 07:12:53;;;;;;;12.82;4.43;;;13.60;99.90;;;;;;4974869;28;94537;-36
2023/05/29 07:15:18;;;;;;;7.68;2.53;;;13.60;99.90;;;;;;4974965;28;92591;-35
2023/05/29 07:17:44;;;;;;;5.82;3.05;;;13.50;99.90;;;;;;4973952;28;97225;-32
2023/05/29 07:20:10;;;;;;;8.23;2.85;;;13.60;99.90;;;;;;4974108;28;95423;-33
2023/05/29 07:22:36;;;;;;;9.65;4.03;;;13.70;99.90;;;;;;4957723;28;92831;-31
2023/05/29 07:25:03;;;;;;;7.60;4.65;;;13.90;99.90;;;;;;4974860;28;94379;-32
2023/05/29 07:27:29;;;;;;;9.60;5.05;;;14.00;99.90;;;;;;4984720;28;94728;-36
2023/05/29 07:29:54;;;;;;;8.73;4.65;;;13.90;99.90;;;;;;4978236;28;94244;-33
2023/05/29 07:32:21;;;;;;;3.80;3.00;;;14.00;99.90;;;;;;4995621;28;94254;-32
2023/05/29 07:34:49;;;;;;;8.98;4.47;;;14.00;99.90;;;;;;4996711;28;93473;-34
2023/05/29 07:37:15;;;;;;;17.70;4.43;;;14.10;99.90;;;;;;4995708;28;93608;-31
2023/05/29 07:39:41;;;;;;;8.02;3.42;;;14.00;99.90;;;;;;4996157;28;94861;-33
2023/05/29 07:42:06;;;;;;;9.52;3.38;;;14.10;99.90;;;;;;4978432;28;95583;-36
2023/05/29 07:44:32;;;;;;;8.35;3.15;;;14.20;99.90;;;;;;4995653;28;93336;-36
2023/05/29 07:46:57;;;;;;;9.85;4.95;;;14.10;99.90;;;;;;4995481;28;94656;-36
2023/05/29 07:49:23;;;;;;;5.32;3.35;;;14.10;99.90;;;;;;4995679;28;95061;-33
2023/05/29 07:51:49;;;;;;;7.38;3.30;;;14.10;99.90;;;;;;4995791;28;93144;-31
2023/05/29 07:54:18;;;;;;;14.45;4.60;;;14.20;99.90;;;;;;4996840;28;95364;-33
2023/05/29 07:56:44;;;;;;;9.25;4.18;;;14.50;99.90;;;;;;4996152;28;95362;-33
2023/05/29 07:59:10;;;;;;;13.52;6.22;;;14.50;99.90;;;;;;4995650;28;94696;-32
2023/05/29 08:01:37;;;;;;;6.80;4.15;;;14.40;99.90;;;;;;4982568;28;93447;-33
2023/05/29 08:04:02;;;;;;;13.73;3.35;;;14.50;99.90;;;;;;4956869;28;92594;-31
2023/05/29 08:06:28;;;;;;;10.43;4.93;;;14.30;99.90;;;;;;4954266;28;95696;-33
2023/05/29 08:08:53;;;;;;;14.35;5.30;;;14.60;99.90;;;;;;4938805;28;94474;-35
2023/05/29 08:11:19;;;;;;;8.98;4.60;;;14.70;99.90;;;;;;4938729;28;94323;-36
2023/05/29 08:13:45;;;;;;;5.07;2.22;;;14.60;99.90;;;;;;4956738;28;92154;-32
2023/05/29 08:16:14;;;;;;;12.48;3.65;;;14.70;99.90;;;;;;4955555;28;94620;-32
2023/05/29 08:18:39;;;;;;;;;;;14.70;99.90;;;;;;4938816;28;94648;-32
2023/05/29 08:21:05;;;;;;;11.35;3.20;;;14.80;99.90;;;;;;4957177;28;92359;-31
2023/05/29 08:23:31;;;;;;;9.43;4.05;;;15.00;99.90;;;;;;4956697;28;92314;-34
2023/05/29 08:25:57;;;;;;;13.05;5.25;;;14.80;99.90;;;;;;4938116;28;95012;-32
2023/05/29 08:28:22;;;;;;;7.47;4.13;;;14.90;99.90;;;;;;4956912;28;94508;-31
2023/05/29 08:30:48;;;;;;;9.57;5.00;;;14.90;99.90;;;;;;4957797;28;93738;-36
2023/05/29 08:33:14;;;;;;;14.25;4.50;;;15.00;99.90;;;;;;4958979;28;93157;-34
2023/05/29 08:35:40;;;;;;;10.27;4.00;;;15.00;99.90;;;;;;4959516;28;95068;-33
2023/05/29 08:38:06;;;;;;;10.95;4.68;;;15.30;99.90;;;;;;4958923;28;93927;-36
2023/05/29 08:40:31;;;;;;;12.57;4.10;;;15.50;99.90;;;;;;4959795;28;94331;-30
2023/05/29 08:43:08;;;;;;;13.32;4.53;;;15.20;99.90;;;;;;4941112;28;93518;-31
2023/05/29 08:45:37;;;;;;;22.92;5.18;;;15.50;99.90;;;;;;4958889;28;94613;-33
2023/05/29 08:48:03;;;;;;;8.63;4.45;;;15.30;99.90;;;;;;4959089;28;94506;-35
2023/05/29 08:50:29;;;;;;;17.25;5.68;;;15.30;99.90;;;;;;4958869;28;93359;-30
2023/05/29 08:52:56;;;;;;;17.88;6.25;;;15.30;99.90;;;;;;4959349;28;93127;-31
2023/05/29 08:55:22;;;;;;;12.40;4.50;;;15.20;99.90;;;;;;4958749;28;95360;-31
2023/05/29 08:57:49;;;;;;;11.85;3.97;;;15.50;99.90;;;;;;4958853;28;95365;-33
2023/05/29 09:00:18;;;;;;;11.95;5.30;;;15.40;99.90;;;;;;4958511;28;94465;-31
2023/05/29 09:02:44;;;;;;;14.82;4.90;;;15.30;99.90;;;;;;4959199;28;92440;-32
2023/05/29 09:05:10;;;;;;;14.20;4.10;;;15.70;99.90;;;;;;4958715;28;95290;-33
2023/05/29 09:07:39;;;;;;;8.10;3.92;;;15.70;99.90;;;;;;4958683;28;94636;-31
2023/05/29 09:10:09;;;;;;;7.47;3.65;;;15.70;90.70;;;;;;4941321;28;92627;-32
2023/05/29 09:12:35;;;;;;;12.70;3.05;;;15.80;93.60;;;;;;4958848;28;93354;-31
2023/05/29 09:15:01;;;;;;;12.88;4.55;;;15.70;89.80;;;;;;4958945;28;94766;-32
2023/05/29 09:17:32;;;;;;;10.55;4.65;;;15.60;90.40;;;;;;4958398;28;94379;-32
2023/05/29 09:19:58;;;;;;;12.10;4.20;;;15.60;94.70;;;;;;4959074;28;93485;-30
2023/05/29 09:22:24;;;;;;;11.05;3.10;;;15.50;92.90;;;;;;4957526;28;93390;-35
2023/05/29 09:24:50;;;;;;;9.82;4.35;;;15.60;95.30;;;;;;4958271;28;94693;-33
2023/05/29 09:27:17;;;;;;;8.70;4.50;;;15.60;92.60;;;;;;4958652;28;94465;-33
2023/05/29 09:29:44;;;;;;;7.65;3.20;;;15.70;98.00;;;;;;4958836;28;93911;-32
2023/05/29 09:32:12;;;;;;;13.52;4.20;;;15.50;99.80;;;;;;4958187;28;93197;-32
2023/05/29 09:34:39;;;;;;;11.43;3.35;;;15.60;99.90;;;;;;4958358;28;94802;-33
2023/05/29 09:37:10;;;;;;;6.47;3.42;;;15.80;99.90;;;;;;4958248;28;96667;-34
2023/05/29 09:39:42;;;;;;;11.43;4.95;;;15.80;99.90;;;;;;4958892;28;92299;-35
2023/05/29 09:42:09;;;;;;;10.65;3.97;;;15.70;99.90;;;;;;4957681;28;93849;-35
2023/05/29 09:44:34;;;;;;;11.63;4.38;;;15.70;99.90;;;;;;4940247;28;95624;-31
2023/05/29 09:47:00;;;;;;;8.27;4.72;;;15.70;99.60;;;;;;4958006;28;95312;-32
2023/05/29 09:49:27;;;;;;;8.18;4.13;;;16.00;99.90;;;;;;4962846;28;94373;-36
2023/05/29 09:51:57;;;;;;;18.50;4.68;;;16.30;99.90;;;;;;4957497;28;94490;-33
2023/05/29 09:54:22;;;;;;;13.88;5.10;;;16.10;95.40;;;;;;4960049;28;94734;-31
2023/05/29 09:56:51;;;;;;;12.52;3.65;;;16.00;91.50;;;;;;4957230;28;94315;-33
2023/05/29 09:59:18;;;;;;;5.38;3.13;;;15.90;93.80;;;;;;4957826;28;92388;-33
2023/05/29 10:01:44;;;;;;;8.50;3.92;;;16.00;87.80;;;;;;4958561;28;92402;-35
2023/05/29 10:04:11;;;;;;;16.92;3.97;;;16.00;94.60;;;;;;4956912;28;94729;-32
2023/05/29 10:06:38;;;;;;;16.80;4.38;;;16.00;91.60;;;;;;4957055;28;94244;-31
2023/05/29 10:09:09;;;;;;;14.13;6.67;;;16.00;94.00;;;;;;4971715;28;95150;-33
2023/05/29 10:11:37;;;;;;;15.80;5.00;;;16.00;97.70;;;;;;4978103;28;93111;-33
2023/05/29 10:14:05;;;;;;;14.57;3.40;;;15.90;99.40;;;;;;4977768;28;94787;-32
2023/05/29 10:16:35;;;;;;;13.95;4.60;;;16.00;99.90;;;;;;4977746;28;94528;-31
2023/05/29 10:19:07;;;;;;;18.65;5.15;;;16.00;99.90;;;;;;4977762;28;94261;-29
2023/05/29 10:21:36;;;;;;;12.70;4.25;;;16.00;98.90;;;;;;4977548;28;94660;-31
2023/05/29 10:24:06;;;;;;;7.25;4.65;;;16.00;99.90;;;;;;4977651;28;94655;-32
2023/05/29 10:26:35;;;;;;;12.15;4.85;;;16.00;99.90;;;;;;4977766;28;94888;-33
2023/05/29 10:29:43;;;;;;;9.75;3.97;;;16.20;99.90;;;;;;4977267;28;92974;-33
2023/05/29 10:32:35;;;;;;;15.35;4.72;;;16.00;99.90;;;;;;4975638;28;93997;-34
2023/05/29 10:35:24;;;;;;;15.30;4.22;;;16.10;99.10;;;;;;4977112;28;95189;-33
2023/05/29 10:37:57;;;;;;;18.00;4.95;;;16.10;99.90;;;;;;4976882;28;96688;-34
2023/05/29 10:40:26;;;;;;;9.25;4.13;;;16.00;95.80;;;;;;4977406;28;93088;-32
2023/05/29 10:42:57;;;;;;;14.07;4.30;;;16.30;99.90;;;;;;4985193;28;92864;-31
2023/05/29 10:45:29;;;;;;;8.65;5.28;;;16.30;95.50;;;;;;4977770;28;94919;-32
2023/05/29 10:47:56;;;;;;;15.20;5.18;;;16.20;90.00;;;;;;4976209;28;94223;-32
2023/05/29 10:50:38;;;;;;;16.10;4.63;;;16.10;98.40;;;;;;4981681;28;93798;-33
2023/05/29 10:53:13;;;;;;;7.15;3.17;;;16.00;95.70;;;;;;4993520;28;92000;-33
2023/05/29 10:55:40;;;;;;;14.23;3.67;;;16.10;92.80;;;;;;4994616;28;94723;-32
2023/05/29 10:58:33;;;;;;;12.35;4.50;;;16.10;98.60;;;;;;4978412;28;95468;-34
2023/05/29 11:00:58;;;;;;;16.48;4.88;;;16.20;97.50;;;;;;4973166;28;93209;-33
2023/05/29 11:03:29;;;;;;;10.88;4.72;;;16.10;98.00;;;;;;4973895;28;93661;-34
2023/05/29 11:06:10;;;;;;;13.40;4.35;;;16.10;92.00;;;;;;4974398;28;94550;-33
2023/05/29 11:08:53;;;;;;;6.55;3.47;;;16.20;93.20;;;;;;4974742;28;94562;-35
2023/05/29 11:11:28;;;;;;;14.48;3.72;;;16.40;99.90;;;;;;4973775;28;94329;-33
2023/05/29 11:13:55;;;;;;;8.80;4.68;;;16.40;88.60;;;;;;4975108;28;93582;-34
2023/05/29 11:16:29;;;;;;;11.10;4.57;;;16.20;99.90;;;;;;4973993;28;95414;-33
2023/05/29 11:18:57;;;;;;;16.40;4.63;;;16.30;94.30;;;;;;4974311;28;95208;-32
2023/05/29 11:21:38;;;;;;;8.30;4.07;;;16.30;93.70;;;;;;4963535;28;94062;-33
2023/05/29 11:24:06;;;;;;;13.27;3.55;;;16.30;95.90;;;;;;4972553;28;94433;-36
2023/05/29 11:26:32;;;;;;;14.60;5.50;;;16.30;96.00;;;;;;4974136;28;95643;-32
2023/05/29 11:29:10;;;;;;;16.02;4.85;;;16.40;99.90;;;;;;4974333;28;95788;-31
2023/05/29 11:31:39;;;;;;;11.88;4.63;;;16.40;99.90;;;;;;4974767;28;94599;-31
2023/05/29 11:34:08;;;;;;;11.98;4.22;;;16.30;95.90;;;;;;4973809;28;92687;-36
2023/05/29 11:36:34;;;;;;;11.45;3.80;;;16.20;98.60;;;;;;4974409;28;94987;-32
2023/05/29 11:39:01;;;;;;;14.93;4.22;;;16.10;99.90;;;;;;4974676;28;94593;-34
2023/05/29 11:41:27;;;;;;;9.77;3.60;;;16.30;94.70;;;;;;4974409;28;94972;-34
2023/05/29 11:44:01;;;;;;;16.85;4.15;;;16.30;99.90;;;;;;4974506;28;92337;-33
2023/05/29 11:46:30;;;;;;;21.48;4.30;;;16.10;96.20;;;;;;4974396;28;94662;-30
2023/05/29 11:48:56;;;;;;;15.25;5.32;;;16.00;96.00;;;;;;4974711;28;95432;-32
2023/05/29 11:51:22;;;;;;;14.98;4.28;;;16.00;95.90;;;;;;4973195;28;93108;-33
2023/05/29 11:53:48;;;;;;;13.90;4.45;;;15.90;99.90;;;;;;4974976;28;94965;-33
2023/05/29 11:56:14;;;;;;;11.52;4.03;;;16.20;99.90;;;;;;4973550;28;94105;-31
2023/05/29 11:58:40;;;;;;;13.35;4.43;;;16.40;99.90;;;;;;4973869;28;94579;-32
2023/05/29 12:01:09;;;;;;;11.40;4.10;;;16.50;99.90;;;;;;4974321;28;94370;-34
2023/05/29 12:03:39;;;;;;;8.82;4.35;;;16.40;98.50;;;;;;4975800;28;92508;-35
2023/05/29 12:06:06;;;;;;;11.10;5.03;;;16.40;98.40;;;;;;4977753;28;95368;-35
2023/05/29 12:08:32;;;;;;;10.38;4.05;;;16.40;95.40;;;;;;4959832;28;94196;-33
2023/05/29 12:10:58;;;;;;;16.85;4.28;;;16.40;95.40;;;;;;4977572;28;93518;-37
2023/05/29 12:13:23;;;;;;;11.88;5.28;;;16.30;95.20;;;;;;4958871;28;94295;-35
2023/05/29 12:15:53;;;;;;;12.57;4.03;;;16.20;94.80;;;;;;4976291;28;95496;-31
2023/05/29 12:18:19;;;;;;;14.50;4.45;;;16.10;99.90;;;;;;4959219;28;95019;-36
2023/05/29 12:20:44;;;;;;;15.93;3.83;;;16.10;94.20;;;;;;4959697;28;95062;-36
2023/05/29 12:23:11;;;;;;;17.50;4.25;;;16.10;99.90;;;;;;4977017;28;92616;-35
2023/05/29 12:25:37;;;;;;;12.60;4.70;;;16.10;99.90;;;;;;4976508;28;94993;-34
2023/05/29 12:28:04;;;;;;;12.80;4.43;;;16.00;99.90;;;;;;4977754;28;94189;-32
2023/05/29 12:30:30;;;;;;;9.30;4.43;;;16.10;99.90;;;;;;4977232;28;94146;-35
2023/05/29 12:32:56;;;;;;;11.50;4.03;;;16.20;99.90;;;;;;4977473;28;93262;-32
2023/05/29 12:35:24;;;;;;;10.27;3.78;;;16.20;99.90;;;;;;4976802;28;95711;-35
2023/05/29 12:37:57;;;;;;;6.90;3.40;;;16.30;99.90;;;;;;4976128;28;94982;-34
2023/05/29 12:40:39;;;;;;;11.25;3.97;;;16.40;99.90;;;;;;4974667;28;95882;-31
2023/05/29 12:43:10;;;;;;;11.18;4.18;;;16.50;98.30;;;;;;4964898;28;93119;-33
2023/05/29 12:45:36;;;;;;;11.80;3.83;;;16.40;86.40;;;;;;4975864;28;94718;-31
2023/05/29 12:48:07;;;;;;;7.78;3.15;;;16.40;97.30;;;;;;4976489;28;94600;-33